Stations météo

réclame
Mon MeteoGroup
Lekeitio, Espagne (8024): Température de l'air & dewpoint: 13.07.2018 23:00:00 - 19.07.2018 23:00:00 (CEST)Lekeitio, Espagne (8024): Vitesse du vent & gusts: 13.07.2018 23:00:00 - 19.07.2018 23:00:00 (CEST)Lekeitio, Espagne (8024): Direction du vent: 13.07.2018 23:00:00 - 19.07.2018 23:00:00 (CEST)Lekeitio, Espagne (8024): Quantités de précipitations: 13.07.2018 23:00:00 - 19.07.2018 23:00:00 (CEST)
Date & Time tt [°C] td [°C] ff [km/h] ff [knt] fx [km/h] fx [knt] dd rr [mm]
19.07.2018 23:00:00 - - - - - - - -
19.07.2018 22:00:00 21,8 21,3 17 9 29 16 NW 0,0
19.07.2018 21:00:00 21,9 21,6 22 12 29 16 NW 0,0
19.07.2018 20:00:00 22,1 22,0 23 12 33 18 NNW -
19.07.2018 19:00:00 22,2 22,0 27 15 43 23 NW 0,0
19.07.2018 18:00:00 22,3 22,0 27 14 44 24 NW 0,0
19.07.2018 17:00:00 22,6 22,3 30 16 39 21 NW 0,0
19.07.2018 16:00:00 22,8 22,4 28 15 36 20 NW 0,0
19.07.2018 15:00:00 23,0 22,7 25 14 32 17 NW 0,0
19.07.2018 14:00:00 23,6 23,3 21 12 27 15 NW -
19.07.2018 13:00:00 23,3 23,0 17 9 26 14 NW 0,0
19.07.2018 12:00:00 22,8 22,4 13 7 16 9 NW 0,0
19.07.2018 11:00:00 22,3 22,0 6 4 13 7 WNW 0,0
19.07.2018 10:00:00 22,7 22,4 7 4 15 8 WNW 0,0
19.07.2018 09:00:00 22,4 22,1 7 4 16 9 W 0,0
19.07.2018 08:00:00 21,9 21,6 11 6 18 10 WNW -
19.07.2018 07:00:00 21,8 21,4 9 5 18 10 WNW 0,0
19.07.2018 06:00:00 21,8 21,6 11 6 18 10 WNW 0,0
19.07.2018 05:00:00 21,8 21,6 9 5 19 11 W 0,0
19.07.2018 04:00:00 21,3 21,0 7 4 24 13 W 0,0
19.07.2018 03:00:00 21,4 21,1 10 6 16 9 W 0,0
19.07.2018 02:00:00 21,8 21,4 10 5 16 9 W -
19.07.2018 01:00:00 21,9 21,6 6 4 11 6 W 0,0
19.07.2018 00:00:00 22,4 22,1 6 4 18 10 NW 0,0
18.07.2018 23:00:00 22,4 22,1 16 9 24 13 N 0,0
18.07.2018 22:00:00 22,9 22,4 16 8 24 13 NNW 0,0
18.07.2018 21:00:00 23,3 22,8 19 11 29 16 NW 0,0
18.07.2018 20:00:00 24,4 23,7 16 8 20 11 NW -
18.07.2018 19:00:00 24,5 23,8 16 9 23 12 NNW 0,0
18.07.2018 18:00:00 24,8 23,8 7 4 15 8 WNW 0,0
18.07.2018 17:00:00 25,7 24,3 7 4 10 5 NNW 0,0
18.07.2018 16:00:00 26,3 24,9 4 2 10 6 ESE 0,0
18.07.2018 15:00:00 24,5 24,0 5 3 14 8 NNW 0,0
18.07.2018 14:00:00 23,3 23,0 10 5 22 12 NNW -
18.07.2018 13:00:00 23,0 22,7 18 10 21 12 NW 0,0
18.07.2018 12:00:00 22,6 22,3 13 7 19 10 NNW 0,0
18.07.2018 11:00:00 22,7 22,2 15 8 22 12 NW 0,0
18.07.2018 10:00:00 22,8 22,4 10 6 15 8 NW 0,0
18.07.2018 09:00:00 23,1 22,7 4 2 10 5 NNE 0,0
18.07.2018 08:00:00 21,7 21,4 0 0 9 5 NE -
18.07.2018 07:00:00 21,5 21,3 3 2 12 7 SSE 0,0
18.07.2018 06:00:00 21,5 21,3 1 1 13 7 S 0,0
18.07.2018 05:00:00 21,9 21,8 3 1 19 10 SSE 0,0
18.07.2018 04:00:00 22,0 21,8 1 1 13 7 E 0,0
18.07.2018 03:00:00 22,0 21,8 1 1 15 8 E 0,0
18.07.2018 02:00:00 22,1 21,8 1 1 19 10 NE -
18.07.2018 01:00:00 22,1 21,8 1 1 17 9 ENE 0,0
18.07.2018 00:00:00 22,2 22,0 3 2 21 12 ENE 0,0
17.07.2018 23:00:00 22,2 21,9 11 6 20 11 NE 0,0
17.07.2018 22:00:00 22,2 21,9 5 3 19 10 ENE 0,0
17.07.2018 21:00:00 22,3 22,0 2 1 15 8 NE 0,0
17.07.2018 20:00:00 22,3 21,6 5 3 13 7 ENE -
17.07.2018 19:00:00 22,5 21,5 4 2 17 9 ENE 0,0
17.07.2018 18:00:00 22,7 21,7 4 2 13 7 NE 0,0
17.07.2018 17:00:00 23,4 21,8 5 3 14 8 ENE 0,0
17.07.2018 16:00:00 23,4 21,8 6 3 16 9 NE 0,0
17.07.2018 15:00:00 23,3 22,0 4 2 16 8 NE 0,0
17.07.2018 14:00:00 23,2 22,0 3 2 13 7 ENE -
17.07.2018 13:00:00 23,1 21,7 5 3 12 6 E 0,0
17.07.2018 12:00:00 21,6 20,4 6 4 12 7 N 0,0
17.07.2018 11:00:00 21,3 19,8 5 3 8 4 NNE 0,0
17.07.2018 10:00:00 22,0 21,2 6 3 10 5 S 0,0
17.07.2018 09:00:00 20,3 20,0 4 2 9 5 S 0,0
17.07.2018 08:00:00 18,1 17,9 5 3 12 7 SSW -
17.07.2018 07:00:00 17,3 17,1 9 5 14 7 S 0,0
17.07.2018 06:00:00 17,3 17,1 7 4 13 7 SSW 0,0
17.07.2018 05:00:00 17,9 17,8 8 4 12 6 S 0,0
17.07.2018 04:00:00 19,0 18,7 5 3 14 8 WSW 0,0
17.07.2018 03:00:00 19,9 19,6 6 4 14 7 W 0,0
17.07.2018 02:00:00 19,4 18,9 6 4 16 8 SSW -
17.07.2018 01:00:00 19,8 19,3 5 3 15 8 WSW 0,0
17.07.2018 00:00:00 20,2 19,2 8 4 16 9 W 0,0
16.07.2018 23:00:00 20,2 19,8 8 4 14 8 WSW 0,0
16.07.2018 22:00:00 20,0 19,5 8 4 14 8 SSW 0,0
16.07.2018 21:00:00 21,4 19,8 10 5 27 15 W 0,0
16.07.2018 20:00:00 22,3 20,1 19 10 71 38 WNW -
16.07.2018 19:00:00 22,0 19,7 29 16 41 22 NW 0,0
16.07.2018 18:00:00 20,9 20,6 21 11 32 17 WNW 1,0
16.07.2018 17:00:00 20,5 20,2 15 8 35 19 W 0,0
16.07.2018 16:00:00 21,5 21,0 21 12 56 30 WNW 0,0
16.07.2018 15:00:00 21,2 20,7 26 14 46 25 WNW 0,0
16.07.2018 14:00:00 20,7 20,4 22 12 57 31 W -
16.07.2018 13:00:00 19,6 19,1 21 11 44 24 W 0,9
16.07.2018 12:00:00 20,2 19,7 22 12 43 23 WNW 0,1
16.07.2018 11:00:00 21,2 20,4 19 11 32 18 W 0,0
16.07.2018 10:00:00 20,7 20,1 16 8 38 20 W 0,0
16.07.2018 09:00:00 20,0 19,5 18 10 46 25 W 0,0
16.07.2018 08:00:00 19,5 18,8 23 12 47 25 W -
16.07.2018 07:00:00 18,9 16,9 38 21 81 44 NW 4,8
16.07.2018 06:00:00 20,5 18,1 47 25 66 36 NW 1,9
16.07.2018 05:00:00 20,5 20,2 22 12 44 24 W 0,0
16.07.2018 04:00:00 20,5 20,0 23 13 41 22 W 0,0
16.07.2018 03:00:00 21,3 20,8 13 7 34 19 W 0,0
16.07.2018 02:00:00 21,4 20,9 14 8 44 24 W -
16.07.2018 01:00:00 21,8 21,1 18 10 34 19 W 0,0
16.07.2018 00:00:00 22,1 21,6 10 5 27 15 WSW 0,0
15.07.2018 23:00:00 22,2 21,7 13 7 29 16 W 0,0
15.07.2018 22:00:00 21,5 20,7 13 7 35 19 SSW 0,0
15.07.2018 21:00:00 21,8 21,1 21 11 33 18 W 0,4
15.07.2018 20:00:00 21,9 21,3 18 10 42 23 W -
15.07.2018 19:00:00 23,2 22,3 30 16 71 38 WNW 0,0
15.07.2018 18:00:00 23,3 22,4 35 19 72 39 NW 0,0
15.07.2018 17:00:00 24,0 23,2 35 19 71 38 NW 0,0
15.07.2018 16:00:00 23,9 23,0 33 18 71 38 NW 0,0
15.07.2018 15:00:00 23,7 22,9 31 17 41 22 NW 0,0
15.07.2018 14:00:00 23,6 22,7 33 18 44 24 NW -
15.07.2018 13:00:00 23,2 22,2 33 18 41 22 NW 0,0
15.07.2018 12:00:00 23,5 22,5 27 15 35 19 NW 0,0
15.07.2018 11:00:00 23,8 22,9 15 8 19 10 NW 0,0
15.07.2018 10:00:00 23,4 22,6 7 4 10 5 WNW 0,0
15.07.2018 09:00:00 22,7 21,7 5 3 11 6 NW 0,0
15.07.2018 08:00:00 21,5 20,7 0 0 11 6 N -
15.07.2018 07:00:00 20,9 19,9 4 2 14 7 W 0,0
15.07.2018 06:00:00 20,6 19,6 1 0 8 4 W 0,0
15.07.2018 05:00:00 21,4 20,6 5 3 11 6 WNW 0,0
15.07.2018 04:00:00 22,0 21,2 3 2 18 10 WNW 0,0
15.07.2018 03:00:00 22,3 21,4 6 4 15 8 W 0,0
15.07.2018 02:00:00 22,4 21,6 5 3 17 9 W -
15.07.2018 01:00:00 23,2 22,5 7 4 18 10 WNW 0,0
15.07.2018 00:00:00 23,0 22,1 15 8 21 12 W 0,0
14.07.2018 23:00:00 23,0 22,1 15 8 22 12 W 0,0
14.07.2018 22:00:00 23,0 22,1 8 5 17 9 W 0,0
14.07.2018 21:00:00 24,3 23,3 2 1 16 9 WNW 0,0
14.07.2018 20:00:00 23,1 22,3 13 7 22 12 NW -
14.07.2018 19:00:00 23,3 22,4 8 4 16 8 NW 0,0
14.07.2018 18:00:00 25,0 24,0 0 0 9 5 ENE 0,0
14.07.2018 17:00:00 27,0 25,6 4 2 9 5 E 0,0
14.07.2018 16:00:00 25,0 24,0 5 3 12 6 N 0,0
14.07.2018 15:00:00 23,8 22,9 8 4 12 7 N 0,0
14.07.2018 14:00:00 23,8 22,9 7 4 18 10 N -
14.07.2018 13:00:00 23,6 22,7 11 6 17 9 NNW 0,0
14.07.2018 12:00:00 23,2 22,3 11 6 16 8 NW 0,0
14.07.2018 11:00:00 23,1 22,3 8 5 11 6 NNW 0,0
14.07.2018 10:00:00 23,1 22,3 0 0 12 6 N 0,0
14.07.2018 09:00:00 22,3 21,3 3 2 15 8 SSE 0,0
14.07.2018 08:00:00 21,8 20,8 8 4 16 9 W -
14.07.2018 07:00:00 21,4 20,4 9 5 17 9 W 0,0
14.07.2018 06:00:00 21,1 20,1 7 4 14 8 W 0,0
14.07.2018 05:00:00 21,1 20,1 9 5 19 10 W 0,0
14.07.2018 04:00:00 20,4 19,2 11 6 32 17 S 0,0
14.07.2018 03:00:00 20,2 19,1 24 13 33 18 S 0,6
14.07.2018 02:00:00 21,9 21,3 7 4 16 8 WSW -
14.07.2018 01:00:00 21,7 20,9 10 5 26 14 S 0,0
14.07.2018 00:00:00 22,4 21,9 7 4 22 12 WNW 0,5
13.07.2018 23:00:00 22,8 22,0 10 5 23 12 WNW 0,2

tt = Température de l'air
td = dewpoint
ff = Vitesse du vent
fx = gusts
dd = Direction du vent
rr = Quantités de précipitations

stations d'obs. à proximité